Time;durP1;ratioP1;P1;durP2;ratioP2;P2;SDS_P1;SDS_P2;PMS_P1;PMS_P2;Temp;Humidity;BMP_temperature;BMP_pressure;BME280_temperature;BME280_humidity;BME280_pressure;Samples;Min_cycle;Max_cycle;Signal;HPM_P1;HPM_P2
2023/10/26 00:00:55;;;;;;;7.22;6.30;;;12.70;99.90;;;;;;5035233;28;20201;-83
2023/10/26 00:03:20;;;;;;;7.53;6.75;;;12.60;99.90;;;;;;5035124;28;20248;-78
2023/10/26 00:05:47;;;;;;;7.03;6.32;;;12.60;99.90;;;;;;5032483;28;20186;-82
2023/10/26 00:08:14;;;;;;;7.85;7.05;;;12.70;99.90;;;;;;5033342;28;20229;-82
2023/10/26 00:10:40;;;;;;;7.97;6.97;;;12.60;99.90;;;;;;5034696;28;20229;-81
2023/10/26 00:13:06;;;;;;;8.55;7.65;;;12.60;99.90;;;;;;5034652;28;20213;-78
2023/10/26 00:15:32;;;;;;;6.45;5.82;;;12.50;99.90;;;;;;5028143;28;20174;-75
2023/10/26 00:17:58;;;;;;;8.63;7.20;;;12.50;99.90;;;;;;5034072;28;20201;-77
2023/10/26 00:20:26;;;;;;;7.35;6.53;;;12.50;99.90;;;;;;5030187;28;20186;-78
2023/10/26 00:22:51;;;;;;;6.45;5.85;;;12.50;99.90;;;;;;5033675;28;20231;-81
2023/10/26 00:25:19;;;;;;;7.85;6.75;;;12.40;99.90;;;;;;5030957;28;20202;-77
2023/10/26 00:27:45;;;;;;;8.82;7.70;;;12.40;99.90;;;;;;5032232;28;20282;-77
2023/10/26 00:30:13;;;;;;;10.43;8.88;;;12.40;99.90;;;;;;5031920;28;20294;-81
2023/10/26 00:32:40;;;;;;;7.95;7.15;;;12.50;99.90;;;;;;5034504;28;20209;-81
2023/10/26 00:35:08;;;;;;;7.00;6.25;;;12.40;99.90;;;;;;5033935;28;20231;-77
2023/10/26 00:37:34;;;;;;;6.53;5.93;;;12.50;99.90;;;;;;5027409;28;20189;-82
2023/10/26 00:40:00;;;;;;;7.22;6.10;;;12.50;99.90;;;;;;5034253;28;20181;-73
2023/10/26 00:42:25;;;;;;;7.00;6.30;;;12.50;99.90;;;;;;5034540;28;20189;-78
2023/10/26 00:44:56;;;;;;;7.55;6.80;;;12.60;99.90;;;;;;5034465;28;20205;-81
2023/10/26 00:47:23;;;;;;;6.75;6.07;;;12.60;99.90;;;;;;5034259;28;20182;-82
2023/10/26 00:49:49;;;;;;;7.07;5.93;;;12.60;99.90;;;;;;5027724;28;20217;-79
2023/10/26 00:52:21;;;;;;;6.90;6.18;;;12.60;99.90;;;;;;5020843;28;20201;-80
2023/10/26 00:54:50;;;;;;;6.32;5.65;;;12.60;99.90;;;;;;5023934;28;20189;-79
2023/10/26 00:57:20;;;;;;;7.35;6.03;;;12.60;99.90;;;;;;5029066;28;20180;-81
2023/10/26 00:59:47;;;;;;;7.20;6.20;;;12.60;99.90;;;;;;5033129;28;20183;-79
2023/10/26 01:02:15;;;;;;;6.60;5.93;;;12.60;99.90;;;;;;5036047;28;20186;-78
2023/10/26 01:04:40;;;;;;;7.88;7.03;;;12.60;99.90;;;;;;5037878;28;20214;-74
2023/10/26 01:07:08;;;;;;;6.75;6.00;;;12.60;99.90;;;;;;5029246;28;20182;-76
2023/10/26 01:09:37;;;;;;;8.15;7.10;;;12.60;99.90;;;;;;5019228;28;20273;-82
2023/10/26 01:12:03;;;;;;;7.70;6.90;;;12.60;99.90;;;;;;5032898;28;20205;-80
2023/10/26 01:14:33;;;;;;;9.63;7.78;;;12.60;99.90;;;;;;5037080;28;20170;-75
2023/10/26 01:17:02;;;;;;;7.18;6.47;;;12.60;99.90;;;;;;5020771;28;20184;-80
2023/10/26 01:19:42;;;;;;;7.35;6.60;;;12.50;99.90;;;;;;5035243;28;20201;-81
2023/10/26 01:22:12;;;;;;;7.10;6.40;;;12.50;99.90;;;;;;5034310;28;20178;-79
2023/10/26 01:24:40;;;;;;;6.65;5.95;;;12.60;99.90;;;;;;5037587;28;20178;-82
2023/10/26 01:27:06;;;;;;;6.00;5.35;;;12.50;99.90;;;;;;5037368;28;20185;-75
2023/10/26 01:29:33;;;;;;;6.68;5.93;;;12.50;99.90;;;;;;5034493;28;20189;-82
2023/10/26 01:32:01;;;;;;;6.63;5.93;;;12.50;99.90;;;;;;5035969;28;20206;-83
2023/10/26 01:34:29;;;;;;;6.18;5.57;;;12.60;99.90;;;;;;5033888;28;20235;-82
2023/10/26 01:36:55;;;;;;;5.38;4.57;;;12.60;99.90;;;;;;5037244;28;20209;-82
2023/10/26 01:39:23;;;;;;;5.75;5.18;;;12.60;99.90;;;;;;5037368;28;20198;-81
2023/10/26 01:41:48;;;;;;;5.15;4.65;;;12.60;99.90;;;;;;5037400;28;20225;-78
2023/10/26 01:44:16;;;;;;;5.20;4.70;;;12.60;99.90;;;;;;5037629;28;20174;-81
2023/10/26 01:46:42;;;;;;;5.47;4.90;;;12.60;99.90;;;;;;5037661;28;20209;-81
2023/10/26 01:49:07;;;;;;;4.88;4.38;;;12.60;99.90;;;;;;5037475;28;20177;-81
2023/10/26 01:51:33;;;;;;;5.50;4.88;;;12.60;99.90;;;;;;5037696;28;20201;-80
2023/10/26 01:53:59;;;;;;;6.35;5.55;;;12.70;99.90;;;;;;5022911;28;20202;-81
2023/10/26 01:56:24;;;;;;;6.18;5.18;;;12.70;99.90;;;;;;5020389;28;20178;-80
2023/10/26 01:58:50;;;;;;;6.03;5.43;;;12.70;99.90;;;;;;5032882;28;20209;-77
2023/10/26 02:01:16;;;;;;;6.43;5.82;;;12.60;99.90;;;;;;5036940;28;20224;-73
2023/10/26 02:03:41;;;;;;;6.53;5.90;;;12.70;99.90;;;;;;5037180;28;20178;-82
2023/10/26 02:06:09;;;;;;;6.43;5.45;;;12.70;99.90;;;;;;5036913;28;20229;-80
2023/10/26 02:08:35;;;;;;;6.43;5.68;;;12.70;99.90;;;;;;5021381;28;20213;-79
2023/10/26 02:11:01;;;;;;;5.82;5.22;;;12.60;99.90;;;;;;5036185;28;20194;-75
2023/10/26 02:13:26;;;;;;;6.32;5.70;;;12.70;99.90;;;;;;5031681;28;20233;-81
2023/10/26 02:15:52;;;;;;;6.40;5.78;;;12.70;99.90;;;;;;5036772;28;20189;-81
2023/10/26 02:18:22;;;;;;;6.80;6.10;;;12.70;99.90;;;;;;5036089;28;20175;-81
2023/10/26 02:20:48;;;;;;;6.50;5.85;;;12.70;99.90;;;;;;5036898;28;20193;-79
2023/10/26 02:23:13;;;;;;;6.10;5.50;;;12.60;99.90;;;;;;5036550;28;20437;-79
2023/10/26 02:25:41;;;;;;;6.78;5.93;;;12.60;99.90;;;;;;5033170;28;20202;-81
2023/10/26 02:28:07;;;;;;;7.13;5.90;;;12.60;99.90;;;;;;5024144;28;20178;-80
2023/10/26 02:30:35;;;;;;;6.68;5.97;;;12.60;99.90;;;;;;5032632;28;20256;-79
2023/10/26 02:33:00;;;;;;;7.03;6.07;;;12.70;99.90;;;;;;5025603;28;20293;-81
2023/10/26 02:35:26;;;;;;;6.20;5.60;;;12.70;99.90;;;;;;5029204;28;20202;-80
2023/10/26 02:37:54;;;;;;;6.05;5.45;;;12.60;99.90;;;;;;5036741;28;20243;-82
2023/10/26 02:40:19;;;;;;;6.53;5.88;;;12.70;99.90;;;;;;5025582;28;20178;-81
2023/10/26 02:42:49;;;;;;;6.07;5.47;;;12.60;99.90;;;;;;5028975;28;20182;-81
2023/10/26 02:45:17;;;;;;;7.50;6.70;;;12.60;99.90;;;;;;5028252;28;20174;-77
2023/10/26 02:47:43;;;;;;;6.53;5.90;;;12.60;99.90;;;;;;5016846;28;20179;-79
2023/10/26 02:50:09;;;;;;;6.85;6.15;;;12.60;99.90;;;;;;5031314;28;20248;-75
2023/10/26 02:52:35;;;;;;;5.45;4.95;;;12.60;99.90;;;;;;5020822;28;20190;-79
2023/10/26 02:55:01;;;;;;;6.55;5.78;;;12.60;99.90;;;;;;5035868;28;20166;-80
2023/10/26 02:57:27;;;;;;;5.88;5.28;;;12.60;99.90;;;;;;5035844;28;20174;-80
2023/10/26 02:59:54;;;;;;;5.65;5.13;;;12.60;99.90;;;;;;5028922;28;20205;-80
2023/10/26 03:02:20;;;;;;;5.10;4.40;;;12.70;99.90;;;;;;5034419;28;20186;-81
2023/10/26 03:04:48;;;;;;;5.85;5.32;;;12.60;99.90;;;;;;5035219;28;20184;-82
2023/10/26 03:07:22;;;;;;;5.68;5.03;;;12.60;99.90;;;;;;5029879;28;20179;-79
2023/10/26 03:09:49;;;;;;;5.78;5.20;;;12.60;99.90;;;;;;5035366;28;20197;-82
2023/10/26 03:12:15;;;;;;;5.72;5.13;;;12.70;99.90;;;;;;5039018;28;20185;-82
2023/10/26 03:14:43;;;;;;;5.90;5.05;;;12.70;99.90;;;;;;5030566;28;20182;-82
2023/10/26 03:17:09;;;;;;;6.07;5.25;;;12.70;99.90;;;;;;5022239;28;20184;-82
2023/10/26 03:19:35;;;;;;;5.57;4.95;;;12.70;99.90;;;;;;5047144;28;20213;-83
2023/10/26 03:22:03;;;;;;;6.03;5.43;;;12.70;99.90;;;;;;5032318;28;20171;-83
2023/10/26 03:24:29;;;;;;;6.97;6.05;;;12.70;99.90;;;;;;5034313;28;20186;-81
2023/10/26 03:26:54;;;;;;;6.93;6.20;;;12.80;99.90;;;;;;5034861;28;20343;-81
2023/10/26 03:29:21;;;;;;;6.93;6.22;;;12.70;99.90;;;;;;5035705;28;20244;-82
2023/10/26 03:31:46;;;;;;;7.65;6.47;;;12.70;99.90;;;;;;5035524;28;20306;-79
2023/10/26 03:34:19;;;;;;;7.53;6.78;;;12.70;99.90;;;;;;5031999;28;20198;-79
2023/10/26 03:36:47;;;;;;;7.80;6.70;;;12.70;99.90;;;;;;5031998;28;20262;-80
2023/10/26 03:39:14;;;;;;;7.28;6.57;;;12.70;99.90;;;;;;5029062;28;20165;-79
2023/10/26 03:41:39;;;;;;;6.60;5.90;;;12.70;99.90;;;;;;5045856;28;20185;-82
2023/10/26 03:44:07;;;;;;;7.80;6.55;;;12.80;99.90;;;;;;5023533;28;20171;-80
2023/10/26 03:46:32;;;;;;;8.35;7.45;;;12.80;99.90;;;;;;5038929;28;20198;-81
2023/10/26 03:49:02;;;;;;;7.72;6.25;;;12.80;99.90;;;;;;5035113;28;20181;-82
2023/10/26 03:51:30;;;;;;;7.32;6.35;;;12.80;99.90;;;;;;5035209;28;20209;-81
2023/10/26 03:53:56;;;;;;;6.95;6.25;;;12.80;99.90;;;;;;5015097;28;20194;-81
2023/10/26 03:56:23;;;;;;;7.95;6.68;;;12.80;99.90;;;;;;5021081;28;20196;-82
2023/10/26 03:58:52;;;;;;;7.00;6.30;;;12.70;99.90;;;;;;5034993;28;20201;-81
2023/10/26 04:01:17;;;;;;;7.45;6.28;;;12.80;99.90;;;;;;5017136;28;20221;-81
2023/10/26 04:03:45;;;;;;;6.35;5.72;;;12.70;99.90;;;;;;5022350;28;20182;-81
2023/10/26 04:06:13;;;;;;;6.47;5.82;;;12.70;99.90;;;;;;5035262;28;20174;-81
2023/10/26 04:08:39;;;;;;;7.18;6.05;;;12.70;99.90;;;;;;5029745;28;20174;-80
2023/10/26 04:11:06;;;;;;;6.88;5.45;;;12.70;99.90;;;;;;5034355;28;20216;-79
2023/10/26 04:13:37;;;;;;;7.25;6.15;;;12.70;99.90;;;;;;5034339;28;20174;-81
2023/10/26 04:16:03;;;;;;;6.05;5.45;;;12.70;99.90;;;;;;5027656;28;20188;-75
2023/10/26 04:18:33;;;;;;;6.22;5.53;;;12.70;99.90;;;;;;5029539;28;20174;-80
2023/10/26 04:20:59;;;;;;;5.95;5.35;;;12.60;99.90;;;;;;5028035;28;20206;-80
2023/10/26 04:23:26;;;;;;;5.78;5.22;;;12.70;99.90;;;;;;5026848;28;20188;-73
2023/10/26 04:25:56;;;;;;;5.57;5.00;;;12.70;99.90;;;;;;5029110;28;20178;-80
2023/10/26 04:28:22;;;;;;;5.32;4.82;;;12.70;99.90;;;;;;5033272;28;20198;-72
2023/10/26 04:30:53;;;;;;;6.03;5.35;;;12.70;99.90;;;;;;5030871;28;20247;-80
2023/10/26 04:33:18;;;;;;;6.00;5.40;;;12.70;99.90;;;;;;5034195;28;20216;-80
2023/10/26 04:35:47;;;;;;;6.80;6.15;;;12.70;99.90;;;;;;5033735;28;20174;-81
2023/10/26 04:38:13;;;;;;;6.10;5.53;;;12.70;99.90;;;;;;5038649;28;20194;-80
2023/10/26 04:40:42;;;;;;;6.40;5.80;;;12.70;99.90;;;;;;5038496;28;20231;-80
2023/10/26 04:43:08;;;;;;;5.70;5.20;;;12.60;99.90;;;;;;5038460;28;20289;-80
2023/10/26 04:45:34;;;;;;;5.93;5.32;;;12.60;99.90;;;;;;5038241;28;20235;-81
2023/10/26 04:48:06;;;;;;;5.85;5.15;;;12.60;99.90;;;;;;5030805;28;20198;-73
2023/10/26 04:50:33;;;;;;;5.72;5.13;;;12.60;99.90;;;;;;5018906;28;20202;-73
2023/10/26 04:53:04;;;;;;;5.28;4.78;;;12.70;99.90;;;;;;5026731;28;20177;-70
2023/10/26 04:55:35;;;;;;;5.65;5.10;;;12.60;99.90;;;;;;5018145;28;20206;-71
2023/10/26 04:58:04;;;;;;;5.35;4.82;;;12.60;99.90;;;;;;5033103;28;20235;-72
2023/10/26 05:00:32;;;;;;;5.47;4.90;;;12.70;99.90;;;;;;5038151;28;20212;-74
2023/10/26 05:02:58;;;;;;;5.70;5.00;;;12.70;99.90;;;;;;5035422;28;20170;-75
2023/10/26 05:05:23;;;;;;;6.68;5.22;;;12.60;99.90;;;;;;5037624;28;20443;-71
2023/10/26 05:07:49;;;;;;;5.93;5.05;;;12.70;99.90;;;;;;5053859;28;20185;-73
2023/10/26 05:10:15;;;;;;;6.97;5.22;;;12.80;99.90;;;;;;5047926;28;20267;-75
2023/10/26 05:12:42;;;;;;;6.28;5.68;;;12.70;99.90;;;;;;5028889;28;20285;-78
2023/10/26 05:15:08;;;;;;;5.82;5.25;;;12.70;99.90;;;;;;5037923;28;20197;-73
2023/10/26 05:17:37;;;;;;;5.85;5.25;;;12.70;99.90;;;;;;5037898;28;20174;-79
2023/10/26 05:20:07;;;;;;;6.43;5.72;;;12.70;99.90;;;;;;5038111;28;20181;-76
2023/10/26 05:22:32;;;;;;;6.43;5.82;;;12.70;99.90;;;;;;5037463;28;20188;-78
2023/10/26 05:25:04;;;;;;;6.00;5.40;;;12.70;99.90;;;;;;5037769;28;20179;-79
2023/10/26 05:27:34;;;;;;;7.28;5.90;;;12.70;99.90;;;;;;5037586;28;20232;-79
2023/10/26 05:30:02;;;;;;;7.00;6.00;;;12.80;99.90;;;;;;5018498;28;20206;-79
2023/10/26 05:32:28;;;;;;;6.07;5.47;;;12.70;99.90;;;;;;5030471;28;20174;-78
2023/10/26 05:34:56;;;;;;;7.28;6.13;;;12.70;99.90;;;;;;5037304;28;20192;-79
2023/10/26 05:37:21;;;;;;;6.70;6.00;;;12.70;99.90;;;;;;5037077;28;20276;-76
2023/10/26 05:39:52;;;;;;;6.90;6.22;;;12.70;99.90;;;;;;5037655;28;20202;-80
2023/10/26 05:42:19;;;;;;;6.88;6.07;;;12.70;99.90;;;;;;5037365;28;20170;-78
2023/10/26 05:44:48;;;;;;;7.45;6.00;;;12.80;99.90;;;;;;5036817;28;20186;-79
2023/10/26 05:47:20;;;;;;;7.45;6.70;;;12.70;99.90;;;;;;5037701;28;20213;-77
2023/10/26 05:49:46;;;;;;;7.35;6.57;;;12.70;99.90;;;;;;5036098;28;20194;-77
2023/10/26 05:52:11;;;;;;;7.38;6.60;;;12.80;99.90;;;;;;5034838;28;20189;-78
2023/10/26 05:54:39;;;;;;;7.20;6.50;;;12.70;99.90;;;;;;5037036;28;20202;-78
2023/10/26 05:57:07;;;;;;;7.00;6.30;;;12.70;99.90;;;;;;5037145;28;20174;-77
2023/10/26 05:59:33;;;;;;;7.15;6.22;;;12.70;99.90;;;;;;5036878;28;20178;-78
2023/10/26 06:02:01;;;;;;;6.90;5.95;;;12.70;99.90;;;;;;5036662;28;20236;-78
2023/10/26 06:04:26;;;;;;;7.63;6.55;;;12.70;99.90;;;;;;5036931;28;20224;-79
2023/10/26 06:06:54;;;;;;;7.85;6.78;;;12.80;99.90;;;;;;5018521;28;20174;-79
2023/10/26 06:09:23;;;;;;;8.00;7.00;;;12.70;99.90;;;;;;5025113;28;20245;-79
2023/10/26 06:11:49;;;;;;;8.60;6.65;;;12.80;99.90;;;;;;5033860;28;20221;-80
2023/10/26 06:14:15;;;;;;;8.23;7.05;;;12.70;99.90;;;;;;5017436;28;20178;-79
2023/10/26 06:16:43;;;;;;;7.78;6.70;;;12.80;99.90;;;;;;5036302;28;20174;-79
2023/10/26 06:19:08;;;;;;;9.27;7.45;;;12.80;99.90;;;;;;5036934;28;20196;-77
2023/10/26 06:21:38;;;;;;;7.80;7.00;;;12.70;99.90;;;;;;5036422;28;20201;-79
2023/10/26 06:24:06;;;;;;;9.18;7.68;;;12.70;99.90;;;;;;5036927;28;20174;-79
2023/10/26 06:26:32;;;;;;;10.10;8.23;;;12.80;99.90;;;;;;5037034;28;20194;-80
2023/10/26 06:29:01;;;;;;;10.73;8.13;;;12.80;99.90;;;;;;5036768;28;20277;-79
2023/10/26 06:31:26;;;;;;;8.75;7.70;;;12.80;99.90;;;;;;5036585;28;20229;-79
2023/10/26 06:33:52;;;;;;;10.20;8.10;;;12.80;99.90;;;;;;5034068;28;20217;-75
2023/10/26 06:36:18;;;;;;;9.82;7.63;;;12.80;99.90;;;;;;5030707;28;20201;-77
2023/10/26 06:38:46;;;;;;;9.10;7.78;;;12.70;99.90;;;;;;5035748;28;20197;-78
2023/10/26 06:41:14;;;;;;;9.93;8.10;;;12.80;99.90;;;;;;5036381;28;20166;-79
2023/10/26 06:43:44;;;;;;;9.35;7.82;;;12.70;99.90;;;;;;5036371;28;20264;-77
2023/10/26 06:46:10;;;;;;;8.65;7.70;;;12.90;99.90;;;;;;5035753;28;20174;-74
2023/10/26 06:48:38;;;;;;;9.45;8.10;;;12.70;99.90;;;;;;5036089;28;20272;-77
2023/10/26 06:51:04;;;;;;;9.73;8.43;;;12.70;99.90;;;;;;5036011;28;20198;-78
2023/10/26 06:53:32;;;;;;;10.45;8.77;;;12.70;99.90;;;;;;5036289;28;20174;-78
2023/10/26 06:55:58;;;;;;;11.10;8.68;;;12.60;99.90;;;;;;5035855;28;20289;-76
2023/10/26 06:58:24;;;;;;;10.75;8.82;;;12.70;99.90;;;;;;5036211;28;20257;-78
2023/10/26 07:00:52;;;;;;;10.65;8.38;;;12.70;99.90;;;;;;5035488;28;20269;-78
2023/10/26 07:03:17;;;;;;;10.82;8.70;;;12.60;99.90;;;;;;5035828;28;20201;-78
2023/10/26 07:05:43;;;;;;;9.52;8.50;;;12.70;99.90;;;;;;5023473;28;20182;-78
2023/10/26 07:08:11;;;;;;;9.40;8.38;;;12.60;99.90;;;;;;5029211;28;20177;-78
2023/10/26 07:10:40;;;;;;;12.55;10.38;;;12.70;99.90;;;;;;5036671;28;20220;-78
2023/10/26 07:13:07;;;;;;;12.75;9.43;;;12.70;99.90;;;;;;5016720;28;20503;-78
2023/10/26 07:15:37;;;;;;;9.70;8.50;;;12.70;99.90;;;;;;5015862;28;20175;-77
2023/10/26 07:18:04;;;;;;;10.57;8.63;;;12.70;99.90;;;;;;5016089;28;20197;-74
2023/10/26 07:20:32;;;;;;;9.13;7.90;;;12.70;99.90;;;;;;5027206;28;20178;-77
2023/10/26 07:22:58;;;;;;;9.93;7.93;;;12.70;99.90;;;;;;5015854;28;20261;-77
2023/10/26 07:25:23;;;;;;;8.60;7.10;;;12.70;99.90;;;;;;5015998;28;20217;-77
2023/10/26 07:27:49;;;;;;;9.85;8.05;;;12.70;99.90;;;;;;5023036;28;20177;-78
2023/10/26 07:30:15;;;;;;;9.07;7.72;;;12.70;99.90;;;;;;5035293;28;20244;-79
2023/10/26 07:32:45;;;;;;;10.63;8.02;;;12.70;99.90;;;;;;5035302;28;20261;-79
2023/10/26 07:35:11;;;;;;;10.38;8.32;;;12.70;99.90;;;;;;5022430;28;20273;-77
2023/10/26 07:37:41;;;;;;;10.65;8.23;;;12.80;99.90;;;;;;5035075;28;20252;-78
2023/10/26 07:40:07;;;;;;;10.10;8.25;;;12.90;99.90;;;;;;5035238;28;20178;-76
2023/10/26 07:42:35;;;;;;;9.43;8.15;;;12.80;99.90;;;;;;5035346;28;20190;-79
2023/10/26 07:45:00;;;;;;;10.73;8.95;;;12.90;99.90;;;;;;5034998;28;20373;-78
2023/10/26 07:47:26;;;;;;;9.85;8.77;;;12.90;99.90;;;;;;5035048;28;20185;-79
2023/10/26 07:49:52;;;;;;;10.27;8.55;;;12.90;99.90;;;;;;5034923;28;20221;-78
2023/10/26 07:52:19;;;;;;;9.25;8.02;;;13.00;99.90;;;;;;5035281;28;20235;-77
2023/10/26 07:54:45;;;;;;;10.43;8.27;;;13.00;99.90;;;;;;5035035;28;20178;-78
2023/10/26 07:57:11;;;;;;;9.07;7.60;;;13.00;99.90;;;;;;5035068;28;20169;-78
2023/10/26 07:59:41;;;;;;;9.40;8.07;;;13.00;99.90;;;;;;5035113;28;20204;-79
2023/10/26 08:02:07;;;;;;;9.57;8.00;;;13.10;99.90;;;;;;5034757;28;20181;-79
2023/10/26 08:04:32;;;;;;;9.48;7.95;;;13.10;99.90;;;;;;5034642;28;20198;-76
2023/10/26 08:06:59;;;;;;;9.60;7.93;;;13.10;99.90;;;;;;5046745;28;20181;-76
2023/10/26 08:09:31;;;;;;;13.60;7.75;;;13.10;99.90;;;;;;5044770;28;20248;-78
2023/10/26 08:11:57;;;;;;;8.85;7.57;;;13.20;99.90;;;;;;5034214;28;20200;-78
2023/10/26 08:14:26;;;;;;;8.32;7.35;;;13.20;99.90;;;;;;5034705;28;20177;-79
2023/10/26 08:16:57;;;;;;;7.43;6.65;;;13.20;99.90;;;;;;5039271;28;20188;-77
2023/10/26 08:19:23;;;;;;;8.43;7.40;;;13.20;99.90;;;;;;5054523;28;20189;-79
2023/10/26 08:21:50;;;;;;;8.18;6.95;;;13.20;99.90;;;;;;5035309;28;20181;-78
2023/10/26 08:24:16;;;;;;;9.13;7.43;;;13.30;99.90;;;;;;5014899;28;20173;-78
2023/10/26 08:26:41;;;;;;;8.27;7.28;;;13.30;99.90;;;;;;5026504;28;20174;-79
2023/10/26 08:29:09;;;;;;;8.52;7.50;;;13.30;99.90;;;;;;5034359;28;20189;-75
2023/10/26 08:31:37;;;;;;;8.38;7.10;;;13.40;99.90;;;;;;5034123;28;20206;-79
2023/10/26 08:34:06;;;;;;;8.13;7.13;;;13.40;99.90;;;;;;5034665;28;20170;-77
2023/10/26 08:36:32;;;;;;;7.50;6.70;;;13.50;99.90;;;;;;5034375;28;20181;-78
2023/10/26 08:39:00;;;;;;;8.77;7.18;;;13.50;99.90;;;;;;5034165;28;20208;-78
2023/10/26 08:41:32;;;;;;;7.88;7.07;;;13.50;99.90;;;;;;5034280;28;20178;-78
2023/10/26 08:44:00;;;;;;;8.55;7.22;;;13.60;99.90;;;;;;5034230;28;20162;-78
2023/10/26 08:46:26;;;;;;;10.15;7.63;;;13.70;99.90;;;;;;5034321;28;20255;-79
2023/10/26 08:48:55;;;;;;;8.30;7.40;;;13.60;99.90;;;;;;5034429;28;20174;-78
2023/10/26 08:51:21;;;;;;;8.50;7.03;;;13.70;99.90;;;;;;5021615;28;20190;-76
2023/10/26 08:53:47;;;;;;;7.68;6.65;;;13.70;99.90;;;;;;5014532;28;20166;-78
2023/10/26 08:56:15;;;;;;;7.82;6.78;;;13.80;99.90;;;;;;5014665;28;20171;-75
2023/10/26 08:58:42;;;;;;;7.07;6.32;;;13.70;99.90;;;;;;5014438;28;20182;-76
2023/10/26 09:01:10;;;;;;;8.07;6.18;;;13.70;99.90;;;;;;5026051;28;20185;-76
2023/10/26 09:03:36;;;;;;;7.20;6.05;;;13.70;99.90;;;;;;5034116;28;20186;-76
2023/10/26 09:06:02;;;;;;;7.50;6.63;;;13.60;99.90;;;;;;5034248;28;20320;-79
2023/10/26 09:08:31;;;;;;;8.27;6.30;;;13.60;99.90;;;;;;5033924;28;20181;-76
2023/10/26 09:10:56;;;;;;;6.50;5.72;;;13.60;99.90;;;;;;5034292;28;20205;-77
2023/10/26 09:13:27;;;;;;;6.50;5.45;;;13.60;99.90;;;;;;5033977;28;20198;-73
2023/10/26 09:15:58;;;;;;;6.22;5.55;;;13.70;99.90;;;;;;5035161;28;20158;-77
2023/10/26 09:18:25;;;;;;;5.57;4.97;;;13.70;99.90;;;;;;5034256;28;20181;-78
2023/10/26 09:21:08;;;;;;;5.50;5.00;;;13.70;99.90;;;;;;5033656;28;20206;-77
2023/10/26 09:23:37;;;;;;;6.55;5.43;;;13.80;99.90;;;;;;5036473;28;20186;-74
2023/10/26 09:26:07;;;;;;;6.80;5.55;;;13.90;99.90;;;;;;5037391;28;20177;-79
2023/10/26 09:28:59;;;;;;;5.95;5.35;;;14.00;99.90;;;;;;5037893;28;20245;-80
2023/10/26 09:31:24;;;;;;;5.47;4.88;;;14.20;99.90;;;;;;5028680;28;20273;-78
2023/10/26 09:33:51;;;;;;;5.82;4.95;;;14.20;99.90;;;;;;5037409;28;20297;-79
2023/10/26 09:36:18;;;;;;;4.88;4.47;;;14.20;99.90;;;;;;5034937;28;20186;-80
2023/10/26 09:38:44;;;;;;;5.45;4.85;;;14.40;99.90;;;;;;5037064;28;20240;-79
2023/10/26 09:41:15;;;;;;;4.88;4.43;;;14.40;99.90;;;;;;5038151;28;20284;-78
2023/10/26 09:43:43;;;;;;;4.60;4.15;;;14.40;99.90;;;;;;5057057;28;20169;-78
2023/10/26 09:46:13;;;;;;;4.28;3.88;;;14.40;99.90;;;;;;5056988;28;20208;-75
2023/10/26 09:48:40;;;;;;;4.38;3.97;;;14.40;99.90;;;;;;5046812;28;20181;-74
2023/10/26 09:51:10;;;;;;;4.35;3.95;;;14.40;99.90;;;;;;5036617;28;20190;-79
2023/10/26 09:53:39;;;;;;;4.20;3.72;;;14.40;99.90;;;;;;5036324;28;20178;-77
2023/10/26 09:56:08;;;;;;;4.18;3.78;;;14.50;99.90;;;;;;5036905;28;20192;-78
2023/10/26 09:58:40;;;;;;;4.45;3.65;;;14.50;99.90;;;;;;5037086;28;20181;-78
2023/10/26 10:01:37;;;;;;;3.58;3.08;;;14.50;99.90;;;;;;5036915;28;20202;-78
2023/10/26 10:04:06;;;;;;;3.67;3.05;;;14.50;99.90;;;;;;5036881;28;20269;-78
2023/10/26 10:06:52;;;;;;;3.72;3.20;;;14.50;99.90;;;;;;5032493;28;20217;-76
2023/10/26 10:09:23;;;;;;;2.97;2.70;;;14.60;99.90;;;;;;5016755;28;20171;-79
2023/10/26 10:12:04;;;;;;;2.80;2.60;;;14.60;99.90;;;;;;5033200;28;20177;-79
2023/10/26 10:14:48;;;;;;;3.20;2.55;;;14.60;99.90;;;;;;5036139;28;20291;-76
2023/10/26 10:17:18;;;;;;;2.28;2.08;;;14.70;99.90;;;;;;5036766;28;20174;-77
2023/10/26 10:20:07;;;;;;;2.60;2.40;;;14.80;99.90;;;;;;5036624;28;20277;-74
2023/10/26 10:22:38;;;;;;;3.25;2.53;;;14.90;99.90;;;;;;5015953;28;20238;-79
2023/10/26 10:25:10;;;;;;;3.03;2.72;;;15.10;99.90;;;;;;5016950;28;20181;-79
2023/10/26 10:27:48;;;;;;;2.50;2.30;;;15.30;99.90;;;;;;5022699;28;20171;-79
2023/10/26 10:30:18;;;;;;;2.63;2.40;;;15.40;99.90;;;;;;5020898;28;20201;-79
2023/10/26 10:35:21;;;;;;;2.80;2.60;;;15.60;99.90;;;;;;5017939;28;20264;-75
2023/10/26 10:38:15;;;;;;;2.65;2.45;;;15.60;99.90;;;;;;5016476;28;20190;-78
2023/10/26 10:41:09;;;;;;;6.30;2.47;;;15.80;99.90;;;;;;5015953;28;20174;-79
2023/10/26 10:43:46;;;;;;;2.28;1.80;;;15.90;99.90;;;;;;5016473;28;20208;-78
2023/10/26 10:46:18;;;;;;;1.67;1.58;;;15.90;99.90;;;;;;5036008;28;20208;-79
2023/10/26 10:49:03;;;;;;;1.85;1.75;;;16.00;99.90;;;;;;5036164;28;20202;-78
2023/10/26 10:51:38;;;;;;;1.83;1.60;;;16.00;99.90;;;;;;5035890;28;20209;-73
2023/10/26 10:54:15;;;;;;;2.65;2.20;;;16.20;99.90;;;;;;5035845;28;20166;-79
2023/10/26 10:56:43;;;;;;;2.47;2.05;;;16.30;99.90;;;;;;5035639;28;20198;-76
2023/10/26 10:59:25;;;;;;;2.05;1.90;;;16.40;99.90;;;;;;5035894;28;20173;-78
2023/10/26 11:02:09;;;;;;;1.92;1.73;;;16.50;99.90;;;;;;5035864;28;20189;-77
2023/10/26 11:04:35;;;;;;;1.60;1.50;;;16.50;99.90;;;;;;5015931;28;20439;-77
2023/10/26 11:07:05;;;;;;;1.35;1.23;;;16.50;99.90;;;;;;5015997;28;20257;-78
2023/10/26 11:09:39;;;;;;;1.40;1.20;;;16.40;99.90;;;;;;5027588;28;20233;-76
2023/10/26 11:12:12;;;;;;;1.48;1.38;;;16.40;99.90;;;;;;5032251;28;20250;-79
2023/10/26 11:14:50;;;;;;;2.50;1.50;;;16.40;99.90;;;;;;5031973;28;20166;-78
2023/10/26 11:17:21;;;;;;;2.25;1.55;;;16.40;99.90;;;;;;5035506;28;20178;-74
2023/10/26 11:19:47;;;;;;;1.63;1.52;;;16.40;99.90;;;;;;5026548;28;20201;-79
2023/10/26 11:22:17;;;;;;;2.30;1.40;;;16.50;99.90;;;;;;5030734;28;20197;-78
2023/10/26 11:24:44;;;;;;;1.98;1.70;;;16.50;99.90;;;;;;5035357;28;20170;-74
2023/10/26 11:27:13;;;;;;;3.08;1.42;;;16.50;99.90;;;;;;5035196;28;20182;-79
2023/10/26 11:29:40;;;;;;;1.83;1.42;;;16.50;99.90;;;;;;5031278;28;20240;-77
2023/10/26 11:32:28;;;;;;;1.42;1.33;;;16.50;99.90;;;;;;5015319;28;20170;-79
2023/10/26 11:35:09;;;;;;;1.52;1.42;;;16.60;99.90;;;;;;5015541;28;20253;-78
2023/10/26 11:37:40;;;;;;;2.30;1.63;;;16.60;99.90;;;;;;5015974;28;20237;-79
2023/10/26 11:40:13;;;;;;;2.72;1.33;;;16.70;99.90;;;;;;5015594;28;20182;-80
2023/10/26 11:43:11;;;;;;;1.67;1.50;;;16.70;99.90;;;;;;5015205;28;20224;-75
2023/10/26 11:45:47;;;;;;;1.48;1.38;;;16.80;99.90;;;;;;5019404;28;20190;-81
2023/10/26 11:48:29;;;;;;;1.85;1.60;;;16.80;99.90;;;;;;5034917;28;20204;-74
2023/10/26 11:50:54;;;;;;;2.72;1.40;;;16.80;99.90;;;;;;5031494;28;20210;-80
2023/10/26 11:53:22;;;;;;;1.70;1.50;;;16.70;99.90;;;;;;5034740;28;20276;-78
2023/10/26 11:55:50;;;;;;;1.55;1.40;;;16.70;99.90;;;;;;5035090;28;20166;-78
2023/10/26 11:58:19;;;;;;;2.90;1.50;;;16.60;99.90;;;;;;5035177;28;20194;-79
2023/10/26 12:00:45;;;;;;;1.75;1.50;;;16.50;99.90;;;;;;5052412;28;20185;-79
2023/10/26 12:03:13;;;;;;;2.65;1.65;;;16.40;99.90;;;;;;5054981;28;20223;-79
2023/10/26 12:05:41;;;;;;;2.45;1.42;;;16.30;99.90;;;;;;5055066;28;20173;-75
2023/10/26 12:08:07;;;;;;;2.03;1.55;;;16.20;99.90;;;;;;5054936;28;20230;-79
2023/10/26 12:10:35;;;;;;;1.63;1.52;;;16.10;99.90;;;;;;5054619;28;20193;-77
2023/10/26 12:13:01;;;;;;;2.03;1.50;;;16.10;99.90;;;;;;5038438;28;20174;-79
2023/10/26 12:15:30;;;;;;;1.88;1.60;;;16.00;99.90;;;;;;5034851;28;20174;-82
2023/10/26 12:17:58;;;;;;;2.45;1.70;;;15.90;99.90;;;;;;5035035;28;20194;-77
2023/10/26 12:20:23;;;;;;;1.92;1.75;;;15.90;99.90;;;;;;5031240;28;20258;-81
2023/10/26 12:22:52;;;;;;;1.95;1.70;;;15.80;99.90;;;;;;5031727;28;20265;-83
2023/10/26 12:25:20;;;;;;;2.22;1.80;;;15.70;99.90;;;;;;5031555;28;20260;-81
2023/10/26 12:27:48;;;;;;;1.75;1.52;;;15.60;99.90;;;;;;5031249;28;20193;-77
2023/10/26 12:30:14;;;;;;;2.70;1.80;;;15.50;99.90;;;;;;5031408;28;20226;-79
2023/10/26 12:32:41;;;;;;;1.73;1.63;;;15.40;99.90;;;;;;5030987;28;20205;-78
2023/10/26 12:35:07;;;;;;;3.33;1.40;;;15.40;99.90;;;;;;5031316;28;20174;-81
2023/10/26 12:37:33;;;;;;;2.00;1.70;;;15.40;99.90;;;;;;5031280;28;20197;-82
2023/10/26 12:40:04;;;;;;;1.80;1.70;;;15.40;99.90;;;;;;5034544;28;20178;-77
2023/10/26 12:42:36;;;;;;;3.28;2.00;;;15.40;99.90;;;;;;5034449;28;20230;-80
2023/10/26 12:45:02;;;;;;;2.20;1.50;;;15.40;99.90;;;;;;5034084;28;20178;-81
2023/10/26 12:47:33;;;;;;;1.80;1.60;;;15.40;99.90;;;;;;5030971;28;20252;-77
2023/10/26 12:49:58;;;;;;;1.50;1.40;;;15.40;99.90;;;;;;5017799;28;20190;-80
2023/10/26 12:52:26;;;;;;;1.50;1.40;;;15.40;99.90;;;;;;5048346;28;20228;-79
2023/10/26 12:54:52;;;;;;;1.48;1.30;;;15.50;99.90;;;;;;5054526;28;20176;-80